Time;durP1;ratioP1;P1;durP2;ratioP2;P2;SDS_P1;SDS_P2;PMS_P1;PMS_P2;Temp;Humidity;BMP_temperature;BMP_pressure;BME280_temperature;BME280_humidity;BME280_pressure;Samples;Min_cycle;Max_cycle;Signal;HPM_P1;HPM_P2
2023/05/12 00:01:29;;;;;;;1.50;1.40;;;;;;;11.35;100.00;98392.91;15284319;19;20019;-42
2023/05/12 00:06:54;;;;;;;3.72;1.50;;;;;;;11.29;100.00;98401.69;15287559;19;20049;-42
2023/05/12 00:12:18;;;;;;;1.52;1.42;;;;;;;11.25;100.00;98399.31;15289112;19;20018;-42
2023/05/12 00:17:46;;;;;;;2.70;1.50;;;;;;;11.14;100.00;98380.75;15282501;19;20164;-46
2023/05/12 00:23:11;;;;;;;1.40;1.30;;;;;;;11.14;100.00;98385.28;15282918;19;20607;-42
2023/05/12 00:28:36;;;;;;;1.30;1.20;;;;;;;11.16;100.00;98383.28;15282184;19;20748;-43
2023/05/12 00:34:03;;;;;;;1.67;1.30;;;;;;;11.19;100.00;98380.25;15286939;19;20025;-42
2023/05/12 00:39:28;;;;;;;2.50;1.20;;;;;;;11.20;100.00;98384.63;15285431;19;20014;-42
2023/05/12 00:44:53;;;;;;;2.67;1.30;;;;;;;11.22;100.00;98380.75;15285786;19;20050;-50
2023/05/12 00:50:22;;;;;;;2.55;1.27;;;;;;;11.25;100.00;98376.88;15280224;19;20037;-42
2023/05/12 00:55:47;;;;;;;3.35;1.35;;;;;;;11.25;100.00;98376.88;15286723;19;20018;-41
2023/05/12 01:01:12;;;;;;;1.20;1.10;;;;;;;11.21;100.00;98379.06;15277567;19;20010;-42
2023/05/12 01:06:46;;;;;;;1.20;1.10;;;;;;;11.10;100.00;98364.06;15280351;19;20014;-42
2023/05/12 01:12:11;;;;;;;1.60;1.20;;;;;;;11.09;100.00;98372.31;15283317;19;20015;-43
2023/05/12 01:17:39;;;;;;;2.13;1.20;;;;;;;11.05;100.00;98370.97;15282911;19;20045;-43
2023/05/12 01:23:08;;;;;;;2.00;1.30;;;;;;;10.99;100.00;98371.63;15277241;19;20015;-42
2023/05/12 01:28:35;;;;;;;1.73;1.35;;;;;;;10.90;100.00;98368.06;15278167;19;20074;-43
2023/05/12 01:34:00;;;;;;;4.57;1.40;;;;;;;10.89;100.00;98377.13;15282283;19;20021;-41
2023/05/12 01:39:24;;;;;;;1.45;1.30;;;;;;;10.86;100.00;98372.94;15276808;19;20025;-42
2023/05/12 01:44:51;;;;;;;2.70;1.20;;;;;;;10.85;100.00;98373.09;15279523;19;20014;-42
2023/05/12 01:50:18;;;;;;;1.42;1.30;;;;;;;10.79;100.00;98370.06;15274957;19;20011;-42
2023/05/12 01:55:44;;;;;;;4.28;2.30;;;;;;;10.64;100.00;98386.00;15277345;19;20783;-43
2023/05/12 02:01:13;;;;;;;2.30;2.08;;;;;;;10.68;100.00;98402.69;15273270;19;20074;-42
2023/05/12 02:06:39;;;;;;;2.55;1.90;;;;;;;10.67;100.00;98401.00;15278884;19;20019;-43
2023/05/12 02:12:04;;;;;;;3.05;2.00;;;;;;;10.65;100.00;98400.31;15275870;19;20015;-42
2023/05/12 02:17:31;;;;;;;2.13;1.58;;;;;;;10.58;100.00;98394.75;15276103;19;20021;-42
2023/05/12 02:22:58;;;;;;;4.13;1.52;;;;;;;10.53;100.00;98398.91;15274666;19;20010;-42
2023/05/12 02:28:23;;;;;;;1.90;1.50;;;;;;;10.45;100.00;98402.44;15275144;19;20656;-42
2023/05/12 02:33:50;;;;;;;2.38;1.80;;;;;;;10.40;100.00;98394.84;15276185;19;20050;-41
2023/05/12 02:39:15;;;;;;;2.00;1.90;;;;;;;10.29;100.00;98398.59;15272420;19;20015;-40
2023/05/12 02:44:40;;;;;;;3.22;1.80;;;;;;;10.22;100.00;98402.97;15276316;19;20036;-43
2023/05/12 02:50:09;;;;;;;1.90;1.60;;;;;;;10.16;100.00;98392.81;15270950;19;20471;-46
2023/05/12 02:55:33;;;;;;;1.75;1.65;;;;;;;10.09;100.00;98395.28;15276085;19;20022;-41
2023/05/12 03:00:58;;;;;;;1.73;1.63;;;;;;;10.05;100.00;98393.94;15269104;19;20081;-43
2023/05/12 03:06:30;;;;;;;4.30;2.10;;;;;;;10.03;100.00;98387.88;15273749;19;20020;-43
2023/05/12 03:11:56;;;;;;;3.08;1.60;;;;;;;9.99;100.00;98395.41;15275929;19;20360;-44
2023/05/12 03:17:20;;;;;;;2.92;1.48;;;;;;;9.93;100.00;98390.66;15275265;19;20018;-42
2023/05/12 03:22:47;;;;;;;1.60;1.50;;;;;;;9.90;100.00;98396.34;15275830;19;20033;-43
2023/05/12 03:28:19;;;;;;;1.88;1.77;;;;;;;9.86;100.00;98397.69;15265650;19;20014;-42
2023/05/12 03:33:44;;;;;;;2.77;1.80;;;;;;;9.83;100.00;98390.75;15267020;19;20026;-43
2023/05/12 03:39:12;;;;;;;2.42;2.10;;;;;;;9.76;100.00;98394.25;15266161;19;20014;-41
2023/05/12 03:44:37;;;;;;;1.90;1.70;;;;;;;9.71;100.00;98379.41;15268963;19;20040;-42
2023/05/12 03:49:55;;;;;;;2.22;1.92;;;;;;;9.71;100.00;98373.16;15263742;19;20847;-43
2023/05/12 03:55:22;;;;;;;2.03;1.83;;;;;;;9.70;100.00;98375.03;15268619;19;20711;-44
2023/05/12 04:00:48;;;;;;;2.90;1.77;;;;;;;9.71;100.00;98378.53;15261342;19;20011;-44
2023/05/12 04:06:14;;;;;;;2.00;1.80;;;;;;;9.71;100.00;98384.78;15272613;19;20014;-42
2023/05/12 04:11:41;;;;;;;3.28;1.95;;;;;;;9.71;100.00;98395.53;15270666;19;20058;-42
2023/05/12 04:17:06;;;;;;;2.05;1.90;;;;;;;9.70;100.00;98401.94;15271308;19;20020;-42
2023/05/12 04:22:31;;;;;;;3.65;2.00;;;;;;;9.73;100.00;98419.59;15267296;19;20018;-43
2023/05/12 04:27:58;;;;;;;2.40;2.20;;;;;;;9.76;100.00;98432.75;15267783;19;20018;-43
2023/05/12 04:33:24;;;;;;;5.65;2.40;;;;;;;9.83;100.00;98436.47;15268230;19;20548;-43
2023/05/12 04:38:49;;;;;;;2.75;2.20;;;;;;;9.91;100.00;98448.34;15266860;19;20029;-43
2023/05/12 04:44:17;;;;;;;2.42;2.22;;;;;;;9.98;100.00;98452.94;15280283;19;20507;-41
2023/05/12 04:49:42;;;;;;;2.50;2.20;;;;;;;10.07;100.00;98459.19;15279195;19;20467;-45
2023/05/12 04:55:08;;;;;;;2.30;2.10;;;;;;;10.20;100.00;98466.03;15284024;19;20018;-42
2023/05/12 05:00:35;;;;;;;4.53;2.20;;;;;;;10.27;100.00;98476.00;15275925;19;20025;-43
2023/05/12 05:06:00;;;;;;;2.17;1.98;;;;;;;10.37;100.00;98481.28;15283108;19;20014;-43
2023/05/12 05:11:24;;;;;;;2.20;2.00;;;;;;;10.48;100.00;98489.13;15284058;19;20007;-42
2023/05/12 05:16:53;;;;;;;3.28;1.75;;;;;;;10.54;100.00;98478.72;15292482;19;20017;-43
2023/05/12 05:22:18;;;;;;;2.67;1.92;;;;;;;10.60;100.00;98484.31;15288848;19;20502;-42
2023/05/12 05:27:43;;;;;;;2.85;2.00;;;;;;;10.67;100.00;98489.06;15278517;19;20086;-42
2023/05/12 05:33:11;;;;;;;2.42;1.90;;;;;;;10.73;100.00;98477.63;15281480;19;20018;-42
2023/05/12 05:38:37;;;;;;;2.53;1.98;;;;;;;10.78;100.00;98478.00;15276210;19;20022;-42
2023/05/12 05:44:03;;;;;;;3.58;2.10;;;;;;;10.83;100.00;98474.84;15276235;19;20741;-42
2023/05/12 05:49:31;;;;;;;4.50;2.00;;;;;;;10.95;100.00;98489.72;15276827;19;20014;-43
2023/05/12 05:54:56;;;;;;;2.20;2.00;;;;;;;11.07;100.00;98509.97;15272467;19;20048;-44
2023/05/12 06:00:21;;;;;;;2.42;2.05;;;;;;;11.22;100.00;98515.59;15263863;19;20475;-42
2023/05/12 06:05:52;;;;;;;3.72;2.13;;;;;;;11.36;100.00;98524.06;15270783;19;20029;-42
2023/05/12 06:11:17;;;;;;;5.10;2.00;;;;;;;11.49;100.00;98515.50;15270171;19;20018;-44
2023/05/12 06:16:42;;;;;;;3.40;2.08;;;;;;;11.64;100.00;98499.53;15276236;19;20026;-43
2023/05/12 06:22:10;;;;;;;2.88;2.30;;;;;;;11.77;100.00;98496.31;15270481;19;20006;-42
2023/05/12 06:27:34;;;;;;;2.42;1.98;;;;;;;11.94;100.00;98498.00;15276647;19;20026;-43
2023/05/12 06:32:59;;;;;;;3.17;2.00;;;;;;;12.11;100.00;98495.34;15277490;19;20029;-45
2023/05/12 06:38:26;;;;;;;3.17;1.85;;;;;;;12.32;100.00;98500.25;15277133;19;20478;-43
2023/05/12 06:43:51;;;;;;;3.55;2.10;;;;;;;12.55;100.00;98489.56;15272055;19;20415;-42
2023/05/12 06:49:15;;;;;;;3.30;2.78;;;;;;;12.88;100.00;98453.47;15270228;19;20018;-42
2023/05/12 06:54:42;;;;;;;3.53;2.40;;;;;;;13.17;100.00;98420.38;15273329;19;20015;-44
2023/05/12 07:00:09;;;;;;;2.35;2.10;;;;;;;13.41;100.00;98405.84;15278390;19;20014;-44
2023/05/12 07:05:34;;;;;;;3.15;2.13;;;;;;;13.62;100.00;98406.22;15278520;19;20082;-43
2023/05/12 07:11:01;;;;;;;2.88;2.13;;;;;;;13.84;100.00;98405.34;15280536;19;20006;-44
2023/05/12 07:16:26;;;;;;;2.65;2.28;;;;;;;14.07;100.00;98395.50;15280309;19;20017;-46
2023/05/12 07:21:51;;;;;;;3.83;1.98;;;;;;;14.28;100.00;98378.53;15279851;19;20010;-43
2023/05/12 07:27:19;;;;;;;2.63;1.70;;;;;;;14.42;100.00;98380.38;15271925;19;20021;-43
2023/05/12 07:32:50;;;;;;;3.55;1.90;;;;;;;14.66;100.00;98374.88;15267775;19;20018;-41
2023/05/12 07:38:16;;;;;;;2.45;1.70;;;;;;;14.84;100.00;98366.34;15270114;19;20018;-42
2023/05/12 07:43:43;;;;;;;3.85;1.70;;;;;;;15.01;100.00;98372.41;15268737;19;20018;-43
2023/05/12 07:49:08;;;;;;;2.38;1.60;;;;;;;15.17;100.00;98368.59;15267644;19;20037;-42
2023/05/12 07:54:33;;;;;;;2.50;1.67;;;;;;;15.40;100.00;98366.56;15271939;19;20740;-43
2023/05/12 08:00:03;;;;;;;2.95;1.60;;;;;;;15.52;100.00;98368.75;15270361;19;20019;-43
2023/05/12 08:05:28;;;;;;;4.75;1.60;;;;;;;15.63;100.00;98381.78;15271713;19;20018;-45
2023/05/12 08:10:53;;;;;;;1.52;1.40;;;;;;;15.77;100.00;98381.91;15268121;19;20018;-43
2023/05/12 08:16:20;;;;;;;2.92;1.45;;;;;;;15.89;100.00;98387.69;15278396;19;20039;-43
2023/05/12 08:21:45;;;;;;;3.85;1.50;;;;;;;15.99;100.00;98386.31;15284797;19;20013;-41
2023/05/12 08:27:10;;;;;;;2.28;1.40;;;;;;;16.15;100.00;98378.91;15285612;19;20046;-42
2023/05/12 08:32:44;;;;;;;3.40;1.50;;;;;;;16.36;100.00;98386.13;15280692;19;20099;-43
2023/05/12 08:38:09;;;;;;;3.55;1.50;;;;;;;16.54;100.00;98385.59;15279237;19;20386;-41
2023/05/12 08:43:38;;;;;;;1.60;1.40;;;;;;;16.59;100.00;98380.41;15282677;19;20014;-42
2023/05/12 08:49:06;;;;;;;1.83;1.45;;;;;;;16.53;100.00;98389.38;15282194;19;20075;-43
2023/05/12 08:54:34;;;;;;;1.50;1.40;;;;;;;16.63;100.00;98394.44;15283197;19;20014;-44
2023/05/12 09:00:15;;;;;;;2.42;1.55;;;;;;;16.66;100.00;98388.63;15277944;19;20037;-42
2023/05/12 09:05:44;;;;;;;2.17;1.50;;;;;;;16.76;100.00;98385.50;15281426;19;20054;-44
2023/05/12 09:11:13;;;;;;;2.33;1.60;;;;;;;16.74;100.00;98393.88;15276907;19;20014;-43
2023/05/12 09:16:40;;;;;;;2.75;1.58;;;;;;;16.96;100.00;98388.34;15281992;19;20350;-44
2023/05/12 09:22:13;;;;;;;1.85;1.30;;;;;;;17.18;100.00;98380.91;15282439;19;20007;-43
2023/05/12 09:27:38;;;;;;;3.38;1.60;;;;;;;17.41;100.00;98376.97;15279006;19;20089;-43
2023/05/12 09:33:16;;;;;;;3.72;1.45;;;;;;;17.47;100.00;98380.75;15283748;19;20011;-47
2023/05/12 09:38:44;;;;;;;3.08;1.60;;;;;;;17.50;100.00;98375.72;15281240;19;20011;-44
2023/05/12 09:44:08;;;;;;;2.13;1.40;;;;;;;17.52;100.00;98381.78;15277837;19;20042;-43
2023/05/12 09:49:33;;;;;;;5.15;1.48;;;;;;;17.49;100.00;98390.38;15279925;19;20026;-43
2023/05/12 09:55:00;;;;;;;3.53;1.50;;;;;;;17.63;100.00;98384.94;15280255;19;20014;-43
2023/05/12 10:00:26;;;;;;;4.65;1.50;;;;;;;17.81;100.00;98382.47;15278514;19;20014;-43
2023/05/12 10:06:13;;;;;;;1.63;1.20;;;;;;;17.94;100.00;98372.59;15280238;19;20019;-45
2023/05/12 10:11:42;;;;;;;3.13;1.40;;;;;;;17.99;100.00;98372.84;15277820;19;20416;-44
2023/05/12 10:17:11;;;;;;;3.42;1.20;;;;;;;18.15;100.00;98369.69;15278642;19;20021;-42
2023/05/12 10:22:36;;;;;;;1.77;1.40;;;;;;;18.38;100.00;98364.81;15277462;19;20021;-42
2023/05/12 10:28:05;;;;;;;3.10;1.20;;;;;;;18.48;100.00;98360.59;15273686;19;20025;-43
2023/05/12 10:33:31;;;;;;;4.80;1.23;;;;;;;18.47;100.00;98369.81;15279126;19;20006;-43
2023/05/12 10:38:56;;;;;;;1.83;1.00;;;;;;;18.61;100.00;98347.97;15254025;19;20015;-42
2023/05/12 10:44:31;;;;;;;1.75;1.00;;;;;;;18.75;100.00;98365.13;15274150;19;20015;-45
2023/05/12 10:49:55;;;;;;;6.45;1.20;;;;;;;18.87;100.00;98357.09;15274014;19;20017;-44
2023/05/12 10:55:20;;;;;;;1.10;0.88;;;;;;;18.91;100.00;98356.44;15277542;19;20038;-43
2023/05/12 11:00:57;;;;;;;2.45;0.80;;;;;;;19.03;100.00;98350.34;15269889;19;20014;-44
2023/05/12 11:06:28;;;;;;;4.10;0.90;;;;;;;19.14;100.00;98354.25;15272926;19;20018;-43
2023/05/12 11:11:52;;;;;;;2.28;0.90;;;;;;;19.24;93.15;98346.41;15274248;19;20021;-43
2023/05/12 11:17:20;;;;;;;1.45;0.82;;;;;;;19.34;83.20;98344.06;15273199;19;20037;-45
2023/05/12 11:22:45;;;;;;;1.73;0.70;;;;;;;19.34;91.00;98345.94;15271815;19;20029;-43
2023/05/12 11:28:13;;;;;;;0.90;0.77;;;;;;;19.30;86.85;98350.16;15273158;19;20014;-43
2023/05/12 11:33:47;;;;;;;2.95;0.73;;;;;;;19.24;94.43;98352.72;15273988;19;20010;-43
2023/05/12 11:39:31;;;;;;;2.70;0.88;;;;;;;19.24;99.14;98357.34;15269967;19;20021;-42
2023/05/12 11:44:57;;;;;;;1.10;0.80;;;;;;;19.29;100.00;98364.88;15270514;19;20015;-42
2023/05/12 11:50:26;;;;;;;1.77;0.80;;;;;;;19.30;100.00;98356.47;15269208;19;20022;-42
2023/05/12 11:56:01;;;;;;;5.25;1.00;;;;;;;19.33;98.31;98347.84;15273839;19;20487;-42
2023/05/12 12:01:27;;;;;;;2.97;0.88;;;;;;;19.33;90.74;98358.78;15272713;19;20013;-43
2023/05/12 12:06:54;;;;;;;1.42;0.70;;;;;;;19.36;94.33;98371.97;15268313;19;20039;-43
2023/05/12 12:12:19;;;;;;;1.40;0.60;;;;;;;19.41;79.95;98374.03;15270384;19;20015;-43
2023/05/12 12:17:44;;;;;;;0.90;0.80;;;;;;;19.67;82.43;98372.19;15270597;19;20090;-42
2023/05/12 12:23:12;;;;;;;3.50;0.70;;;;;;;20.01;76.60;98368.16;15270969;19;20022;-42
2023/05/12 12:28:36;;;;;;;1.95;0.80;;;;;;;19.99;82.44;98383.97;15269475;19;20030;-43
2023/05/12 12:34:01;;;;;;;2.33;0.70;;;;;;;19.92;73.07;98383.19;15272241;19;20025;-43
2023/05/12 12:39:28;;;;;;;2.30;0.85;;;;;;;19.99;70.34;98381.22;15265946;19;20050;-44
2023/05/12 12:44:53;;;;;;;3.58;0.82;;;;;;;20.16;72.93;98383.41;15268651;19;20019;-43
2023/05/12 12:50:18;;;;;;;2.83;0.80;;;;;;;20.32;74.29;98388.28;15267371;19;20019;-44
2023/05/12 12:55:53;;;;;;;1.50;0.80;;;;;;;20.58;73.82;98383.59;15269535;19;20101;-46
2023/05/12 13:01:18;;;;;;;2.60;0.75;;;;;;;20.93;64.26;98385.75;15264827;19;20019;-42
2023/05/12 13:06:42;;;;;;;1.38;0.70;;;;;;;21.01;70.47;98381.00;15278949;19;20477;-45
2023/05/12 13:12:10;;;;;;;0.82;0.60;;;;;;;20.84;73.43;98387.13;15279358;19;20021;-42
2023/05/12 13:17:34;;;;;;;0.60;0.60;;;;;;;20.58;88.07;98388.25;15283272;19;20018;-43
2023/05/12 13:22:59;;;;;;;1.33;0.80;;;;;;;20.50;75.05;98383.91;15283397;19;20486;-45
2023/05/12 13:28:26;;;;;;;0.70;0.70;;;;;;;20.40;75.57;98381.69;15281505;19;20032;-44
2023/05/12 13:33:51;;;;;;;1.75;0.90;;;;;;;20.25;71.14;98378.44;15280386;19;20018;-45
2023/05/12 13:39:15;;;;;;;2.70;0.90;;;;;;;20.62;77.26;98379.34;15279070;19;20018;-45
2023/05/12 13:44:44;;;;;;;2.67;0.73;;;;;;;20.51;62.68;98382.84;15273316;19;20026;-43
2023/05/12 13:50:08;;;;;;;2.58;0.70;;;;;;;20.46;70.11;98388.16;15275283;19;20011;-43
2023/05/12 13:55:37;;;;;;;3.50;0.75;;;;;;;20.32;67.75;98388.28;15279461;19;20019;-42
2023/05/12 14:01:04;;;;;;;3.65;0.90;;;;;;;20.23;73.67;98380.56;15271467;19;20018;-43
2023/05/12 14:06:31;;;;;;;2.33;0.60;;;;;;;20.17;67.67;98383.16;15275365;19;20763;-43
2023/05/12 14:11:56;;;;;;;3.50;0.77;;;;;;;20.14;72.51;98374.59;15276428;19;20113;-43
2023/05/12 14:17:24;;;;;;;1.15;0.70;;;;;;;20.08;66.03;98376.31;15275813;19;20965;-46
2023/05/12 14:22:49;;;;;;;2.67;0.80;;;;;;;20.03;72.52;98370.66;15273530;19;20022;-45
2023/05/12 14:28:14;;;;;;;1.00;0.70;;;;;;;20.05;66.28;98374.03;15272870;19;20030;-42
2023/05/12 14:33:51;;;;;;;2.13;0.70;;;;;;;20.12;67.71;98379.44;15274628;19;20614;-44
2023/05/12 14:39:16;;;;;;;3.25;0.70;;;;;;;20.22;71.41;98389.88;15273221;19;20772;-43
2023/05/12 14:44:42;;;;;;;2.95;0.88;;;;;;;20.20;75.93;98381.88;15269496;19;20039;-43
2023/05/12 14:50:11;;;;;;;1.95;0.80;;;;;;;20.19;71.01;98384.84;15271708;19;20014;-43
2023/05/12 14:55:36;;;;;;;1.95;0.70;;;;;;;20.08;65.00;98394.59;15277398;19;20011;-43
2023/05/12 15:01:01;;;;;;;1.77;0.70;;;;;;;20.15;63.56;98389.94;15249021;19;20051;-43
2023/05/12 15:06:29;;;;;;;2.10;0.82;;;;;;;20.16;68.09;98392.44;15277329;19;20014;-43
2023/05/12 15:11:53;;;;;;;1.42;0.70;;;;;;;20.44;63.08;98398.47;15277954;19;20014;-43
2023/05/12 15:17:17;;;;;;;1.23;0.80;;;;;;;21.04;67.70;98397.00;15274523;19;20030;-43
2023/05/12 15:22:45;;;;;;;0.60;0.60;;;;;;;21.84;55.62;98393.13;15275545;19;20017;-44
2023/05/12 15:28:10;;;;;;;0.98;0.75;;;;;;;22.53;59.94;98393.66;15261395;19;20105;-47
2023/05/12 15:33:34;;;;;;;2.65;0.80;;;;;;;22.38;57.18;98389.50;15267857;19;20049;-46
2023/05/12 15:39:02;;;;;;;1.55;0.60;;;;;;;22.12;59.83;98397.13;15273226;19;20078;-48
2023/05/12 15:44:26;;;;;;;2.05;0.80;;;;;;;22.04;56.73;98404.84;15272271;19;20014;-49
2023/05/12 15:49:55;;;;;;;1.48;0.60;;;;;;;22.21;60.08;98399.50;15269079;19;20021;-48
2023/05/12 15:55:22;;;;;;;1.98;0.70;;;;;;;22.36;55.35;98390.78;15269591;19;20014;-45
2023/05/12 16:00:47;;;;;;;3.80;0.80;;;;;;;22.86;59.37;98381.22;15269873;19;20014;-50
2023/05/12 16:06:12;;;;;;;1.63;0.88;;;;;;;22.75;57.06;98382.91;15269986;19;20018;-49
2023/05/12 16:11:39;;;;;;;1.60;0.73;;;;;;;22.60;59.61;98386.16;15265510;19;20010;-49
2023/05/12 16:17:03;;;;;;;2.58;0.60;;;;;;;23.18;58.74;98386.25;15270991;19;20049;-52
2023/05/12 16:22:28;;;;;;;2.67;0.80;;;;;;;23.52;56.88;98378.13;15266208;19;20479;-48
2023/05/12 16:27:55;;;;;;;1.00;0.60;;;;;;;23.75;53.71;98373.56;15265735;19;20015;-48
2023/05/12 16:33:21;;;;;;;0.60;0.60;;;;;;;23.40;56.44;98378.19;15270400;19;20382;-48
2023/05/12 16:38:45;;;;;;;2.97;0.63;;;;;;;23.08;57.54;98384.97;15276600;19;20351;-50
2023/05/12 16:44:13;;;;;;;2.42;0.70;;;;;;;22.72;61.36;98389.72;15283112;19;20129;-48
2023/05/12 16:49:37;;;;;;;1.13;0.63;;;;;;;22.21;60.88;98386.63;15276933;19;20018;-48
2023/05/12 16:55:04;;;;;;;1.70;0.80;;;;;;;21.89;69.66;98388.84;15279053;19;20018;-47
2023/05/12 17:00:31;;;;;;;1.52;0.88;;;;;;;21.46;72.93;98388.81;15278673;19;20010;-46
2023/05/12 17:05:57;;;;;;;1.42;0.70;;;;;;;21.16;73.53;98383.38;15280072;19;20010;-48
2023/05/12 17:11:23;;;;;;;2.28;0.63;;;;;;;20.83;75.45;98396.41;15277828;19;20010;-47
2023/05/12 17:16:52;;;;;;;1.23;0.60;;;;;;;20.52;71.90;98394.63;15280876;19;20026;-49
2023/05/12 17:22:16;;;;;;;0.93;0.63;;;;;;;20.30;69.84;98393.13;15281325;19;20018;-47
2023/05/12 17:27:41;;;;;;;2.40;0.90;;;;;;;20.27;70.09;98401.81;15275955;19;20054;-47
2023/05/12 17:33:09;;;;;;;3.90;0.70;;;;;;;20.12;68.58;98404.03;15280484;19;20025;-50
2023/05/12 17:38:33;;;;;;;2.78;0.65;;;;;;;20.00;73.70;98406.66;15279936;19;20025;-47
2023/05/12 17:43:57;;;;;;;1.90;0.80;;;;;;;19.87;71.25;98407.59;15279529;19;20026;-50
2023/05/12 17:49:25;;;;;;;1.52;0.80;;;;;;;19.71;73.58;98401.59;15269803;19;20459;-51
2023/05/12 17:54:50;;;;;;;1.50;1.00;;;;;;;19.52;74.26;98408.03;15280265;19;20686;-48
2023/05/12 18:00:16;;;;;;;2.95;0.85;;;;;;;19.32;80.09;98403.53;15272563;19;20053;-47
2023/05/12 18:05:43;;;;;;;3.45;0.80;;;;;;;19.08;77.89;98402.38;15275425;19;20018;-51
2023/05/12 18:11:08;;;;;;;1.13;0.73;;;;;;;18.91;84.95;98418.38;15276790;19;20017;-46
2023/05/12 18:16:32;;;;;;;2.63;0.90;;;;;;;18.70;100.00;98442.16;15283994;19;20027;-47
2023/05/12 18:22:02;;;;;;;2.95;0.88;;;;;;;18.45;100.00;98437.38;15278882;19;20025;-46
2023/05/12 18:27:26;;;;;;;0.82;0.73;;;;;;;18.24;100.00;98445.81;15271910;19;20026;-50
2023/05/12 18:32:51;;;;;;;1.35;0.82;;;;;;;18.07;100.00;98446.22;15273452;19;20010;-48
2023/05/12 18:38:18;;;;;;;1.08;0.88;;;;;;;17.87;100.00;98452.47;15275761;19;20018;-47
2023/05/12 18:43:43;;;;;;;2.00;0.82;;;;;;;17.68;100.00;98448.66;15270173;19;20014;-50
2023/05/12 18:49:09;;;;;;;2.42;0.90;;;;;;;17.45;100.00;98453.63;15271156;19;20014;-50
2023/05/12 18:54:36;;;;;;;1.23;0.73;;;;;;;17.20;100.00;98457.75;15275069;19;20388;-50
2023/05/12 19:00:03;;;;;;;0.88;0.70;;;;;;;16.96;100.00;98464.53;15272739;19;20640;-49
2023/05/12 19:05:29;;;;;;;1.67;0.70;;;;;;;16.81;100.00;98469.25;15272886;19;20026;-49
2023/05/12 19:10:57;;;;;;;1.63;0.88;;;;;;;16.67;100.00;98473.75;15269940;19;20026;-47
2023/05/12 19:16:22;;;;;;;2.05;0.90;;;;;;;16.56;100.00;98484.16;15272116;19;20018;-45
2023/05/12 19:21:52;;;;;;;1.73;0.82;;;;;;;16.33;100.00;98485.25;15272934;19;20029;-48
2023/05/12 19:27:19;;;;;;;2.35;0.65;;;;;;;16.14;100.00;98496.81;15274667;19;20014;-51
2023/05/12 19:32:50;;;;;;;2.17;0.73;;;;;;;15.97;100.00;98504.38;15272774;19;20014;-46
2023/05/12 19:38:17;;;;;;;2.10;0.85;;;;;;;15.87;100.00;98504.69;15270622;19;20016;-45
2023/05/12 19:43:45;;;;;;;1.38;0.82;;;;;;;15.78;100.00;98520.25;15271084;19;20018;-46
2023/05/12 19:49:09;;;;;;;1.75;0.80;;;;;;;15.55;100.00;98525.84;15267694;19;20011;-47
2023/05/12 19:54:34;;;;;;;1.08;0.85;;;;;;;15.32;100.00;98532.25;15270258;19;20021;-47
2023/05/12 20:00:03;;;;;;;1.25;0.80;;;;;;;15.26;100.00;98535.72;15269535;19;20026;-47
2023/05/12 20:05:30;;;;;;;1.73;0.98;;;;;;;15.20;100.00;98533.78;15270591;19;20414;-45
2023/05/12 20:10:54;;;;;;;1.92;1.00;;;;;;;15.10;100.00;98534.91;15269566;19;20553;-47
2023/05/12 20:16:22;;;;;;;1.00;0.90;;;;;;;15.01;100.00;98532.47;15286940;19;20849;-45
2023/05/12 20:21:46;;;;;;;0.80;0.75;;;;;;;14.91;100.00;98532.72;15278265;19;20348;-46
2023/05/12 20:27:18;;;;;;;1.30;0.75;;;;;;;14.87;100.00;98531.44;15282629;19;20023;-44
2023/05/12 20:32:52;;;;;;;2.13;0.90;;;;;;;14.81;100.00;98541.16;15283956;19;20021;-48
2023/05/12 20:38:16;;;;;;;1.10;0.82;;;;;;;14.70;100.00;98539.75;15280687;19;20015;-48
2023/05/12 20:43:41;;;;;;;1.40;0.88;;;;;;;14.60;100.00;98534.53;15284408;19;20033;-49
2023/05/12 20:49:09;;;;;;;1.92;1.10;;;;;;;14.29;100.00;98549.06;15275980;19;20364;-44
2023/05/12 20:54:34;;;;;;;1.58;1.00;;;;;;;14.06;100.00;98538.22;15285334;19;20557;-46
2023/05/12 20:59:59;;;;;;;1.75;0.90;;;;;;;13.96;100.00;98556.59;15282076;19;20023;-48
2023/05/12 21:05:26;;;;;;;2.60;1.00;;;;;;;13.83;100.00;98549.91;15282547;19;20493;-44
2023/05/12 21:10:50;;;;;;;1.83;0.90;;;;;;;13.66;100.00;98551.03;15277068;19;20018;-43
2023/05/12 21:16:15;;;;;;;2.00;0.90;;;;;;;13.61;100.00;98556.13;15283213;19;20007;-44
2023/05/12 21:21:42;;;;;;;2.10;0.90;;;;;;;13.63;100.00;98573.03;15278191;19;20014;-45
2023/05/12 21:27:10;;;;;;;1.40;0.90;;;;;;;13.56;100.00;98575.59;15281087;19;20017;-46
2023/05/12 21:32:42;;;;;;;1.65;0.90;;;;;;;13.41;100.00;98568.22;15276349;19;20022;-44
2023/05/12 21:38:09;;;;;;;1.00;0.98;;;;;;;13.37;100.00;98571.44;15279274;19;20014;-46
2023/05/12 21:43:34;;;;;;;1.20;0.90;;;;;;;13.33;100.00;98570.13;15271152;19;20021;-46
2023/05/12 21:48:59;;;;;;;1.58;1.00;;;;;;;13.29;100.00;98564.19;15272501;19;20019;-45
2023/05/12 21:54:26;;;;;;;3.15;1.40;;;;;;;13.25;100.00;98569.09;15270578;19;20014;-46
2023/05/12 21:59:51;;;;;;;1.80;1.00;;;;;;;13.23;100.00;98565.72;15276576;19;20140;-44
2023/05/12 22:05:19;;;;;;;1.92;0.90;;;;;;;13.22;100.00;98579.44;15276133;19;20385;-45
2023/05/12 22:10:46;;;;;;;1.27;0.90;;;;;;;13.16;100.00;98580.97;15275265;19;20018;-44
2023/05/12 22:16:11;;;;;;;1.98;0.90;;;;;;;13.05;100.00;98579.47;15277919;19;20019;-46
2023/05/12 22:21:43;;;;;;;1.42;1.08;;;;;;;12.99;100.00;98585.59;15277967;19;20034;-46
2023/05/12 22:27:10;;;;;;;1.75;1.08;;;;;;;12.93;100.00;98583.59;15278407;19;20029;-47
2023/05/12 22:32:41;;;;;;;1.08;0.77;;;;;;;12.88;100.00;98588.66;15272470;19;20014;-45
2023/05/12 22:38:05;;;;;;;2.50;1.10;;;;;;;12.85;100.00;98586.28;15278789;19;20017;-48
2023/05/12 22:43:33;;;;;;;1.98;1.30;;;;;;;12.84;100.00;98588.16;15278220;19;20018;-47
2023/05/12 22:48:58;;;;;;;1.25;1.10;;;;;;;12.82;100.00;98597.47;15274774;19;20014;-47
2023/05/12 22:54:22;;;;;;;4.07;1.00;;;;;;;12.78;100.00;98592.41;15275610;19;20026;-45
2023/05/12 22:59:50;;;;;;;2.67;1.10;;;;;;;12.73;100.00;98602.03;15273380;19;20675;-48
2023/05/12 23:05:16;;;;;;;1.58;1.00;;;;;;;12.65;100.00;98605.59;15274830;19;20025;-44
2023/05/12 23:10:40;;;;;;;1.88;1.10;;;;;;;12.51;100.00;98604.44;15272143;19;20018;-45
2023/05/12 23:16:08;;;;;;;1.75;1.30;;;;;;;12.39;100.00;98605.78;15279069;19;20022;-44
2023/05/12 23:21:32;;;;;;;2.38;1.20;;;;;;;12.32;100.00;98614.53;15269189;19;20011;-45
2023/05/12 23:26:57;;;;;;;2.33;1.08;;;;;;;12.29;100.00;98616.75;15274206;19;20367;-45
2023/05/12 23:32:31;;;;;;;2.95;1.10;;;;;;;12.29;100.00;98617.56;15272051;19;20033;-46
2023/05/12 23:37:55;;;;;;;1.10;1.00;;;;;;;12.26;100.00;98612.53;15274507;19;20606;-47
2023/05/12 23:43:20;;;;;;;1.92;1.00;;;;;;;12.22;100.00;98616.56;15276288;19;20098;-44
2023/05/12 23:48:47;;;;;;;0.85;0.85;;;;;;;12.18;100.00;98613.34;14760190;19;10000877;-47
2023/05/12 23:54:12;;;;;;;2.15;1.20;;;;;;;12.15;100.00;98620.94;15270159;19;20014;-45
2023/05/12 23:59:37;;;;;;;2.20;1.05;;;;;;;12.14;100.00;98624.66;15271622;19;20459;-44
